Time;durP1;ratioP1;P1;durP2;ratioP2;P2;SDS_P1;SDS_P2;PMS_P1;PMS_P2;Temp;Humidity;BMP_temperature;BMP_pressure;BME280_temperature;BME280_humidity;BME280_pressure;Samples;Min_cycle;Max_cycle;Signal;HPM_P1;HPM_P2
2023/05/04 00:00:29;;;;;;;;;;;18.00;63.40;;;;;;5051436;28;827;-68
2023/05/04 00:02:54;;;;;;;;;;;18.00;63.40;;;;;;5083583;28;827;-68
2023/05/04 00:05:20;;;;;;;;;;;18.00;63.40;;;;;;5051021;28;1234;-68
2023/05/04 00:07:45;;;;;;;;;;;18.00;63.40;;;;;;5051070;28;1917;-68
2023/05/04 00:10:11;;;;;;;;;;;18.00;63.40;;;;;;5051190;28;858;-68
2023/05/04 00:12:36;;;;;;;;;;;17.90;63.40;;;;;;5050637;28;883;-68
2023/05/04 00:15:02;;;;;;;;;;;18.00;63.50;;;;;;5050705;28;1360;-68
2023/05/04 00:17:28;;;;;;;;;;;18.00;63.50;;;;;;5051447;28;861;-68
2023/05/04 00:19:53;;;;;;;;;;;18.00;63.50;;;;;;5051159;28;808;-68
2023/05/04 00:22:19;;;;;;;;;;;18.00;63.50;;;;;;5051104;28;914;-68
2023/05/04 00:24:44;;;;;;;;;;;18.00;63.60;;;;;;5050573;28;1341;-68
2023/05/04 00:27:10;;;;;;;;;;;18.00;63.50;;;;;;5050608;28;1902;-68
2023/05/04 00:29:36;;;;;;;;;;;17.90;63.50;;;;;;5050802;28;868;-68
2023/05/04 00:32:01;;;;;;;;;;;17.90;63.60;;;;;;5049709;28;881;-68
2023/05/04 00:34:27;;;;;;;;;;;18.00;63.60;;;;;;5050552;28;1353;-68
2023/05/04 00:36:53;;;;;;;;;;;18.00;63.60;;;;;;5046023;28;966;-68
2023/05/04 00:39:18;;;;;;;;;;;18.00;63.60;;;;;;5050450;28;801;-68
2023/05/04 00:41:44;;;;;;;;;;;17.90;63.60;;;;;;5050773;28;867;-68
2023/05/04 00:44:10;;;;;;;;;;;17.90;63.50;;;;;;5050649;28;1271;-68
2023/05/04 00:46:35;;;;;;;;;;;18.00;63.60;;;;;;5051512;28;847;-68
2023/05/04 00:49:01;;;;;;;;;;;18.00;63.60;;;;;;5051680;28;1902;-68
2023/05/04 00:51:26;;;;;;;;;;;18.00;63.70;;;;;;5049448;28;808;-68
2023/05/04 00:53:52;;;;;;;;;;;17.90;63.60;;;;;;5066628;28;1282;-68
2023/05/04 00:56:17;;;;;;;;;;;17.90;63.60;;;;;;5050432;28;1022;-68
2023/05/04 00:58:43;;;;;;;;;;;17.90;63.70;;;;;;5082463;28;932;-68
2023/05/04 01:01:08;;;;;;;;;;;17.90;63.70;;;;;;5065892;28;1175;-68
2023/05/04 01:03:34;;;;;;;;;;;17.90;63.70;;;;;;5050213;28;879;-68
2023/05/04 01:06:12;;;;;;;;;;;17.90;63.70;;;;;;5050223;28;1342;-68
2023/05/04 01:08:38;;;;;;;;;;;17.90;63.80;;;;;;5049420;28;1961;-68
2023/05/04 01:11:06;;;;;;;;;;;18.00;63.80;;;;;;5082318;28;926;-68
2023/05/04 01:13:32;;;;;;;;;;;17.90;63.70;;;;;;5047441;28;982;-68
2023/05/04 01:15:57;;;;;;;;;;;17.90;63.70;;;;;;5082455;28;1368;-68
2023/05/04 01:18:23;;;;;;;;;;;17.90;63.80;;;;;;5044371;28;893;-68
2023/05/04 01:20:48;;;;;;;;;;;17.90;63.80;;;;;;5050240;28;951;-68
2023/05/04 01:23:14;;;;;;;;;;;17.90;63.80;;;;;;5049170;28;1319;-68
2023/05/04 01:25:49;;;;;;;;;;;17.90;63.80;;;;;;5049631;28;1594;-68
2023/05/04 01:28:18;;;;;;;;;;;17.90;63.80;;;;;;5082009;28;1971;-68
2023/05/04 01:30:44;;;;;;;;;;;17.90;63.80;;;;;;5049630;28;849;-68
2023/05/04 01:33:10;;;;;;;;;;;17.90;63.90;;;;;;5046375;28;1414;-68
2023/05/04 01:35:35;;;;;;;;;;;17.90;63.80;;;;;;5081909;28;1348;-68
2023/05/04 01:38:01;;;;;;;;;;;17.90;63.90;;;;;;5048603;28;970;-68
2023/05/04 01:40:26;;;;;;;;;;;17.90;63.80;;;;;;5048765;28;851;-68
2023/05/04 01:42:52;;;;;;;;;;;17.90;63.90;;;;;;5049888;28;1033;-68
2023/05/04 01:45:17;;;;;;;;;;;17.90;63.90;;;;;;5049499;28;1324;-68
2023/05/04 01:47:43;;;;;;;;;;;17.90;63.90;;;;;;5048686;28;1949;-68
2023/05/04 01:50:09;;;;;;;;;;;17.90;63.90;;;;;;5049919;28;914;-68
2023/05/04 01:52:34;;;;;;;;;;;17.90;63.90;;;;;;5049923;28;982;-68
2023/05/04 01:55:00;;;;;;;;;;;17.90;63.90;;;;;;5049551;28;1342;-68
2023/05/04 01:57:25;;;;;;;;;;;17.90;63.90;;;;;;5049695;28;805;-68
2023/05/04 01:59:51;;;;;;;;;;;17.90;63.90;;;;;;5082234;28;1000;-68
2023/05/04 02:02:16;;;;;;;;;;;17.90;64.00;;;;;;5049955;28;887;-68
2023/05/04 02:04:41;;;;;;;;;;;17.90;64.00;;;;;;5049512;28;1269;-68
2023/05/04 02:07:07;;;;;;;;;;;17.90;64.00;;;;;;5084619;28;1989;-68
2023/05/04 02:09:33;;;;;;;;;;;17.90;64.00;;;;;;5053593;28;847;-68
2023/05/04 02:11:58;;;;;;;;;;;17.90;64.10;;;;;;5053714;28;883;-69
2023/05/04 02:14:23;;;;;;;;;;;17.90;64.00;;;;;;5053225;28;1267;-68
2023/05/04 02:16:49;;;;;;;;;;;17.90;64.10;;;;;;5052390;28;1038;-69
2023/05/04 02:19:14;;;;;;;;;;;17.90;64.00;;;;;;5053556;28;816;-68
2023/05/04 02:21:40;;;;;;;;;;;17.90;64.10;;;;;;5053568;28;871;-68
2023/05/04 02:24:06;;;;;;;;;;;17.90;64.10;;;;;;5051632;28;1265;-69
2023/05/04 02:26:31;;;;;;;;;;;17.90;64.10;;;;;;5053359;28;899;-68
2023/05/04 02:28:57;;;;;;;;;;;17.90;64.10;;;;;;5053197;28;1898;-69
2023/05/04 02:31:23;;;;;;;;;;;17.90;64.10;;;;;;5053090;28;830;-68
2023/05/04 02:33:49;;;;;;;;;;;17.90;64.10;;;;;;5053527;28;1460;-69
2023/05/04 02:36:14;;;;;;;;;;;17.90;64.10;;;;;;5052538;28;829;-69
2023/05/04 02:38:40;;;;;;;;;;;17.90;64.20;;;;;;5054007;28;840;-68
2023/05/04 02:41:05;;;;;;;;;;;17.90;64.10;;;;;;5053022;28;918;-68
2023/05/04 02:43:31;;;;;;;;;;;17.90;64.10;;;;;;5051185;28;1307;-68
2023/05/04 02:45:56;;;;;;;;;;;17.90;64.20;;;;;;5052885;28;1247;-68
2023/05/04 02:48:23;;;;;;;;;;;17.90;64.10;;;;;;5052604;28;1909;-68
2023/05/04 02:50:48;;;;;;;;;;;17.90;64.20;;;;;;5053013;28;789;-68
2023/05/04 02:53:13;;;;;;;;;;;17.90;64.20;;;;;;5051948;28;902;-68
2023/05/04 02:55:39;;;;;;;;;;;17.90;64.20;;;;;;5052388;28;1304;-68
2023/05/04 02:58:05;;;;;;;;;;;17.90;64.20;;;;;;5052653;28;836;-69
2023/05/04 03:00:30;;;;;;;;;;;17.90;64.20;;;;;;5052732;28;953;-68
2023/05/04 03:02:56;;;;;;;;;;;17.90;64.20;;;;;;5052739;28;879;-68
2023/05/04 03:05:21;;;;;;;;;;;17.90;64.20;;;;;;5052057;28;1286;-68
2023/05/04 03:07:47;;;;;;;;;;;17.90;64.20;;;;;;5052146;28;1993;-68
2023/05/04 03:10:12;;;;;;;;;;;17.90;64.20;;;;;;5052428;28;919;-68
2023/05/04 03:12:37;;;;;;;;;;;17.90;64.30;;;;;;5052172;28;879;-69
2023/05/04 03:15:03;;;;;;;;;;;17.90;64.30;;;;;;5051955;28;1268;-68
2023/05/04 03:17:29;;;;;;;;;;;17.90;64.30;;;;;;5051625;28;874;-68
2023/05/04 03:19:54;;;;;;;;;;;17.90;64.30;;;;;;5052238;28;863;-68
2023/05/04 03:22:19;;;;;;;;;;;17.90;64.30;;;;;;5051426;28;864;-68
2023/05/04 03:24:45;;;;;;;;;;;17.80;64.20;;;;;;5051974;28;1282;-68
2023/05/04 03:27:11;;;;;;;;;;;17.90;64.30;;;;;;5050712;28;1902;-68
2023/05/04 03:29:36;;;;;;;;;;;17.90;64.30;;;;;;5050741;28;860;-68
2023/05/04 03:32:02;;;;;;;;;;;17.90;64.30;;;;;;5052027;28;805;-68
2023/05/04 03:34:27;;;;;;;;;;;17.90;64.30;;;;;;5052535;28;1383;-69
2023/05/04 03:36:53;;;;;;;;;;;17.90;64.30;;;;;;5051548;28;1376;-69
2023/05/04 03:39:18;;;;;;;;;;;17.90;64.30;;;;;;5083889;28;841;-69
2023/05/04 03:41:43;;;;;;;;;;;17.90;64.40;;;;;;5051817;28;846;-69
2023/05/04 03:44:09;;;;;;;;;;;17.90;64.30;;;;;;5051266;28;1325;-68
2023/05/04 03:46:34;;;;;;;;;;;17.90;64.40;;;;;;5051814;28;823;-68
2023/05/04 03:49:00;;;;;;;;;;;17.90;64.40;;;;;;5051277;28;1906;-69
2023/05/04 03:51:25;;;;;;;;;;;17.80;64.30;;;;;;5051509;28;879;-68
2023/05/04 03:53:51;;;;;;;;;;;17.80;64.30;;;;;;5051169;28;1267;-68
2023/05/04 03:56:16;;;;;;;;;;;17.90;64.40;;;;;;5083681;28;1381;-68
2023/05/04 03:58:42;;;;;;;;;;;17.90;64.40;;;;;;5050915;28;824;-68
2023/05/04 04:01:07;;;;;;;;;;;17.80;64.30;;;;;;5050955;28;848;-68
2023/05/04 04:03:35;;;;;;;;;;;17.90;64.40;;;;;;5050113;28;918;-69
2023/05/04 04:06:02;;;;;;;;;;;17.90;64.40;;;;;;5050279;28;1259;-68
2023/05/04 04:08:28;;;;;;;;;;;17.90;64.40;;;;;;5044768;28;1975;-68
2023/05/04 04:10:53;;;;;;;;;;;17.90;64.40;;;;;;5083184;28;906;-69
2023/05/04 04:13:19;;;;;;;;;;;17.90;64.30;;;;;;5050679;28;1065;-68
2023/05/04 04:15:45;;;;;;;;;;;18.00;64.30;;;;;;5051073;28;1344;-68
2023/05/04 04:18:11;;;;;;;;;;;18.00;64.20;;;;;;5051142;28;763;-69
2023/05/04 04:20:36;;;;;;;;;;;18.00;64.10;;;;;;5050985;28;800;-68
2023/05/04 04:23:02;;;;;;;;;;;18.00;63.90;;;;;;5051474;28;870;-68
2023/05/04 04:25:28;;;;;;;;;;;18.10;63.90;;;;;;5051735;28;1298;-69
2023/05/04 04:27:54;;;;;;;;;;;18.10;63.70;;;;;;5050697;28;1902;-69
2023/05/04 04:30:20;;;;;;;;;;;18.10;63.50;;;;;;5050367;28;843;-69
2023/05/04 04:32:46;;;;;;;;;;;18.20;63.50;;;;;;5047206;28;1459;-72
2023/05/04 04:35:12;;;;;;;;;;;18.20;63.30;;;;;;5050921;28;1312;-73
2023/05/04 04:37:38;;;;;;;;;;;18.30;63.30;;;;;;5082636;28;1188;-73
2023/05/04 04:40:05;;;;;;;;;;;18.30;63.10;;;;;;5050717;28;870;-73
2023/05/04 04:42:31;;;;;;;;;;;18.30;63.00;;;;;;5050650;28;1271;-72
2023/05/04 04:44:56;;;;;;;;;;;18.30;62.90;;;;;;5050303;28;1228;-71
2023/05/04 04:47:22;;;;;;;;;;;18.40;62.90;;;;;;5049126;28;1883;-71
2023/05/04 04:49:47;;;;;;;;;;;18.40;62.80;;;;;;5048884;28;1889;-70
2023/05/04 04:52:13;;;;;;;;;;;18.40;62.80;;;;;;5048402;28;2080;-70
2023/05/04 04:54:38;;;;;;;;;;;18.40;62.70;;;;;;5048572;28;1600;-70
2023/05/04 04:57:04;;;;;;;;;;;18.50;62.70;;;;;;5050266;28;1304;-70
2023/05/04 04:59:30;;;;;;;;;;;18.60;62.50;;;;;;5050045;28;1354;-71
2023/05/04 05:01:56;;;;;;;;;;;18.70;62.40;;;;;;5048200;28;2190;-70
2023/05/04 05:04:22;;;;;;;;;;;18.80;62.30;;;;;;5081866;28;1383;-73
2023/05/04 05:06:48;;;;;;;;;;;18.90;62.00;;;;;;5049357;28;1369;-71
2023/05/04 05:09:13;;;;;;;;;;;19.00;61.60;;;;;;5050085;28;1906;-71
2023/05/04 05:11:38;;;;;;;;;;;19.20;61.40;;;;;;5050338;28;1473;-72
2023/05/04 05:14:04;;;;;;;;;;;19.30;61.00;;;;;;5049669;28;1341;-70
2023/05/04 05:16:29;;;;;;;;;;;19.40;60.70;;;;;;5050209;28;875;-70
2023/05/04 05:18:55;;;;;;;;;;;19.50;60.40;;;;;;5049934;28;855;-69
2023/05/04 05:21:21;;;;;;;;;;;19.60;60.10;;;;;;5049929;28;946;-69
2023/05/04 05:23:46;;;;;;;;;;;19.70;59.90;;;;;;5080611;28;2031;-67
2023/05/04 05:26:12;;;;;;;;;;;19.80;59.70;;;;;;5049694;28;1229;-69
2023/05/04 05:28:37;;;;;;;;;;;19.90;59.50;;;;;;5049518;28;1965;-70
2023/05/04 05:31:02;;;;;;;;;;;20.00;59.30;;;;;;5049962;28;900;-69
2023/05/04 05:33:28;;;;;;;;;;;20.00;59.10;;;;;;5049697;28;1437;-69
2023/05/04 05:35:53;;;;;;;;;;;20.10;59.00;;;;;;5049945;28;1263;-69
2023/05/04 05:38:20;;;;;;;;;;;20.20;58.90;;;;;;5049546;28;867;-69
2023/05/04 05:40:47;;;;;;;;;;;20.20;58.70;;;;;;5052123;28;872;-69
2023/05/04 05:43:12;;;;;;;;;;;20.20;58.60;;;;;;5053940;28;1251;-69
2023/05/04 05:45:38;;;;;;;;;;;20.30;58.60;;;;;;5053656;28;1277;-69
2023/05/04 05:48:04;;;;;;;;;;;20.30;58.40;;;;;;5052895;28;1956;-71
2023/05/04 05:50:29;;;;;;;;;;;20.30;58.30;;;;;;5069245;28;1485;-73
2023/05/04 05:52:55;;;;;;;;;;;20.40;58.30;;;;;;5053811;28;832;-72
2023/05/04 05:55:20;;;;;;;;;;;20.40;58.30;;;;;;5085933;28;1255;-70
2023/05/04 05:57:46;;;;;;;;;;;20.40;58.20;;;;;;5053756;28;836;-70
2023/05/04 06:00:11;;;;;;;;;;;20.40;58.20;;;;;;5053988;28;958;-70
2023/05/04 06:02:37;;;;;;;;;;;20.50;58.20;;;;;;5052477;28;1061;-70
2023/05/04 06:05:03;;;;;;;;;;;20.50;58.20;;;;;;5046010;28;1692;-70
2023/05/04 06:07:29;;;;;;;;;;;20.50;58.10;;;;;;5085764;28;1925;-70
2023/05/04 06:09:55;;;;;;;;;;;20.50;58.10;;;;;;5053704;28;946;-70
2023/05/04 06:12:20;;;;;;;;;;;20.60;58.10;;;;;;5054142;28;875;-70
2023/05/04 06:14:46;;;;;;;;;;;20.50;58.10;;;;;;5054986;28;1278;-71
2023/05/04 06:17:12;;;;;;;;;;;20.60;58.20;;;;;;5054401;28;852;-70
2023/05/04 06:19:37;;;;;;;;;;;20.50;58.00;;;;;;5052114;28;913;-69
2023/05/04 06:22:03;;;;;;;;;;;20.50;58.10;;;;;;5052099;28;1101;-69
2023/05/04 06:24:29;;;;;;;;;;;20.50;58.10;;;;;;5052963;28;1237;-70
2023/05/04 06:26:55;;;;;;;;;;;20.60;58.10;;;;;;5052901;28;843;-69
2023/05/04 06:29:20;;;;;;;;;;;20.50;58.10;;;;;;5053086;28;1961;-69
2023/05/04 06:31:46;;;;;;;;;;;20.50;58.10;;;;;;5053256;28;1022;-69
2023/05/04 06:34:11;;;;;;;;;;;20.60;58.20;;;;;;5052749;28;1494;-68
2023/05/04 06:36:37;;;;;;;;;;;20.60;58.20;;;;;;5053237;28;927;-68
2023/05/04 06:39:02;;;;;;;;;;;20.60;58.80;;;;;;5053155;28;860;-68
2023/05/04 06:41:28;;;;;;;;;;;20.60;58.20;;;;;;5053240;28;808;-69
2023/05/04 06:43:53;;;;;;;;;;;20.60;58.20;;;;;;5084570;28;1440;-70
2023/05/04 06:46:19;;;;;;;;;;;20.60;58.20;;;;;;5051466;28;941;-70
2023/05/04 06:48:44;;;;;;;;;;;20.60;58.20;;;;;;5051555;28;1934;-69
2023/05/04 06:51:10;;;;;;;;;;;20.60;58.20;;;;;;5052464;28;1078;-69
2023/05/04 06:53:35;;;;;;;;;;;20.60;58.20;;;;;;5046222;28;1289;-69
2023/05/04 06:56:01;;;;;;;;;;;20.60;58.20;;;;;;5084659;28;1298;-68
2023/05/04 06:58:26;;;;;;;;;;;20.60;58.30;;;;;;5051020;28;1448;-68
2023/05/04 07:00:52;;;;;;;;;;;20.60;58.30;;;;;;5083866;28;1512;-68
2023/05/04 07:03:17;;;;;;;;;;;20.60;58.30;;;;;;5051107;28;1366;-69
2023/05/04 07:05:44;;;;;;;;;;;20.60;58.40;;;;;;5052172;28;1313;-68
2023/05/04 07:08:10;;;;;;;;;;;20.60;59.00;;;;;;5052007;28;1926;-68
2023/05/04 07:10:36;;;;;;;;;;;20.60;59.30;;;;;;5046866;28;1383;-68
2023/05/04 07:13:01;;;;;;;;;;;20.60;59.00;;;;;;5083075;28;1032;-68
2023/05/04 07:15:27;;;;;;;;;;;20.60;59.20;;;;;;5051572;28;1386;-68
2023/05/04 07:17:52;;;;;;;;;;;20.60;59.50;;;;;;5051679;28;1295;-68
2023/05/04 07:20:20;;;;;;;;;;;20.60;59.50;;;;;;5051733;28;1347;-68
2023/05/04 07:22:45;;;;;;;;;;;20.60;59.60;;;;;;5051294;28;1500;-68
2023/05/04 07:25:11;;;;;;;;;;;20.60;59.90;;;;;;5082181;28;1491;-68
2023/05/04 07:27:36;;;;;;;;;;;20.60;60.70;;;;;;5051805;28;1965;-68
2023/05/04 07:30:02;;;;;;;;;;;20.60;61.00;;;;;;5051891;28;876;-68
2023/05/04 07:32:28;;;;;;;;;;;20.60;61.00;;;;;;5051639;28;827;-68
2023/05/04 07:34:53;;;;;;;;;;;20.50;60.90;;;;;;5051459;28;1456;-68
2023/05/04 07:37:19;;;;;;;;;;;20.50;61.10;;;;;;5051768;28;819;-68
2023/05/04 07:39:44;;;;;;;;;;;20.60;61.30;;;;;;5051218;28;2227;-68
2023/05/04 07:42:10;;;;;;;;;;;20.50;61.10;;;;;;5050054;28;2113;-68
2023/05/04 07:44:36;;;;;;;;;;;20.50;61.30;;;;;;5084083;28;1462;-68
2023/05/04 07:47:01;;;;;;;;;;;20.50;61.60;;;;;;5051138;28;1461;-68
2023/05/04 07:49:27;;;;;;;;;;;20.50;61.50;;;;;;5050169;28;1902;-68
2023/05/04 07:51:52;;;;;;;;;;;20.40;61.50;;;;;;5083752;28;895;-68
2023/05/04 07:54:18;;;;;;;;;;;20.40;61.60;;;;;;5051297;28;1288;-68
2023/05/04 07:56:43;;;;;;;;;;;20.40;61.80;;;;;;5051659;28;921;-68
2023/05/04 07:59:09;;;;;;;;;;;20.40;62.00;;;;;;5051485;28;899;-69
2023/05/04 08:01:34;;;;;;;;;;;20.40;62.20;;;;;;5083307;28;840;-69
2023/05/04 08:04:00;;;;;;;;;;;20.30;63.20;;;;;;5051220;28;1282;-69
2023/05/04 08:06:25;;;;;;;;;;;20.30;62.60;;;;;;5052908;28;1105;-68
2023/05/04 08:08:51;;;;;;;;;;;20.30;62.60;;;;;;5051065;28;1898;-68
2023/05/04 08:11:16;;;;;;;;;;;20.30;62.80;;;;;;5051378;28;955;-68
2023/05/04 08:13:45;;;;;;;;;;;20.20;62.70;;;;;;5083151;28;856;-68
2023/05/04 08:16:11;;;;;;;;;;;20.20;63.10;;;;;;5046020;28;1296;-68
2023/05/04 08:18:37;;;;;;;;;;;20.20;63.30;;;;;;5050350;28;907;-69
2023/05/04 08:21:02;;;;;;;;;;;20.20;63.60;;;;;;5050095;28;847;-69
2023/05/04 08:23:29;;;;;;;;;;;20.20;64.50;;;;;;5050686;28;883;-69
2023/05/04 08:25:54;;;;;;;;;;;20.20;64.40;;;;;;5050767;28;1232;-69
2023/05/04 08:28:20;;;;;;;;;;;20.20;64.30;;;;;;5051167;28;1957;-68
2023/05/04 08:30:45;;;;;;;;;;;20.20;64.60;;;;;;5082970;28;891;-69
2023/05/04 08:33:11;;;;;;;;;;;20.10;65.00;;;;;;5051212;28;1376;-69
2023/05/04 08:35:36;;;;;;;;;;;20.10;65.30;;;;;;5083067;28;1390;-69
2023/05/04 08:38:02;;;;;;;;;;;20.10;65.50;;;;;;5050722;28;915;-69
2023/05/04 08:40:28;;;;;;;;;;;20.10;65.60;;;;;;5050586;28;836;-69
2023/05/04 08:42:53;;;;;;;;;;;20.00;65.60;;;;;;5082847;28;922;-69
2023/05/04 08:45:19;;;;;;;;;;;20.00;65.70;;;;;;5046897;28;1255;-68
2023/05/04 08:47:44;;;;;;;;;;;20.00;65.90;;;;;;5082739;28;1955;-69
2023/05/04 08:50:10;;;;;;;;;;;20.00;66.10;;;;;;5050302;28;895;-69
2023/05/04 08:52:39;;;;;;;;;;;20.00;66.00;;;;;;5082748;28;860;-69
2023/05/04 08:55:04;;;;;;;;;;;20.00;66.20;;;;;;5081559;28;1278;-69
2023/05/04 08:57:30;;;;;;;;;;;19.90;66.10;;;;;;5032876;28;904;-69
2023/05/04 08:59:55;;;;;;;;;;;19.90;66.00;;;;;;5050278;28;1088;-69
2023/05/04 09:02:21;;;;;;;;;;;19.90;66.10;;;;;;5082757;28;1188;-69
2023/05/04 09:04:47;;;;;;;;;;;19.90;66.10;;;;;;5048795;28;1337;-69
2023/05/04 09:07:13;;;;;;;;;;;19.90;66.10;;;;;;5049368;28;2106;-69
2023/05/04 09:09:38;;;;;;;;;;;19.90;66.10;;;;;;5049916;28;1533;-69
2023/05/04 09:12:04;;;;;;;;;;;19.90;66.10;;;;;;5082604;28;1807;-69
2023/05/04 09:14:33;;;;;;;;;;;19.80;66.10;;;;;;5049282;28;1272;-69
2023/05/04 09:16:59;;;;;;;;;;;19.80;66.20;;;;;;5077800;28;916;-69
2023/05/04 09:19:32;;;;;;;;;;;19.80;66.30;;;;;;5050080;28;1022;-69
2023/05/04 09:21:59;;;;;;;;;;;19.80;66.20;;;;;;5049690;28;2014;-68
2023/05/04 09:24:28;;;;;;;;;;;19.80;66.20;;;;;;5047984;28;1955;-69
2023/05/04 09:26:53;;;;;;;;;;;19.80;66.20;;;;;;5049659;28;1371;-69
2023/05/04 09:29:20;;;;;;;;;;;19.80;66.20;;;;;;5049996;28;1898;-69
2023/05/04 09:31:49;;;;;;;;;;;19.80;66.30;;;;;;5050006;28;1455;-69
2023/05/04 09:34:15;;;;;;;;;;;19.80;66.40;;;;;;5082363;28;1360;-69
2023/05/04 09:36:41;;;;;;;;;;;19.80;66.40;;;;;;5065386;28;865;-69
2023/05/04 09:39:13;;;;;;;;;;;19.80;66.60;;;;;;5050066;28;1021;-69
2023/05/04 09:41:39;;;;;;;;;;;19.80;66.70;;;;;;5048171;28;1049;-70
2023/05/04 09:44:05;;;;;;;;;;;19.80;66.80;;;;;;5049056;28;1249;-69
2023/05/04 09:46:30;;;;;;;;;;;19.80;66.80;;;;;;5049516;28;855;-70
2023/05/04 09:48:56;;;;;;;;;;;19.80;66.80;;;;;;5065821;28;1897;-70
2023/05/04 09:51:22;;;;;;;;;;;19.80;66.80;;;;;;5051438;28;879;-70
2023/05/04 09:53:49;;;;;;;;;;;19.80;66.80;;;;;;5050593;28;926;-69
2023/05/04 09:56:29;;;;;;;;;;;19.80;66.80;;;;;;5040119;28;843;-69
2023/05/04 09:58:57;;;;;;;;;;;19.80;66.80;;;;;;5049725;28;990;-69
2023/05/04 10:01:22;;;;;;;;;;;19.80;66.90;;;;;;5048512;28;1491;-69
2023/05/04 10:03:48;;;;;;;;;;;19.80;66.90;;;;;;5048059;28;865;-69
2023/05/04 10:06:13;;;;;;;;;;;19.80;67.00;;;;;;5047155;28;2117;-69
2023/05/04 10:08:40;;;;;;;;;;;19.80;67.00;;;;;;5081286;28;2170;-70
2023/05/04 10:11:06;;;;;;;;;;;19.70;67.30;;;;;;5049647;28;1678;-70
2023/05/04 10:13:31;;;;;;;;;;;19.70;67.20;;;;;;5081530;28;824;-70
2023/05/04 10:16:17;;;;;;;;;;;19.70;67.30;;;;;;5048534;28;1340;-69
2023/05/04 10:18:57;;;;;;;;;;;19.70;67.30;;;;;;5049230;28;874;-68
2023/05/04 10:21:41;;;;;;;;;;;19.70;67.30;;;;;;5048392;28;1239;-68
2023/05/04 10:24:07;;;;;;;;;;;19.70;67.40;;;;;;5049291;28;1201;-68
2023/05/04 10:26:35;;;;;;;;;;;19.70;67.60;;;;;;5049755;28;860;-69
2023/05/04 10:29:12;;;;;;;;;;;19.60;67.60;;;;;;5053303;28;1930;-69
2023/05/04 10:31:38;;;;;;;;;;;19.70;67.90;;;;;;5085934;28;908;-68
2023/05/04 10:34:04;;;;;;;;;;;19.60;67.90;;;;;;5054401;28;1584;-68
2023/05/04 10:36:40;;;;;;;;;;;19.60;67.90;;;;;;5053229;28;840;-69
2023/05/04 10:39:18;;;;;;;;;;;19.60;68.20;;;;;;5052923;28;867;-69
2023/05/04 10:41:58;;;;;;;;;;;19.70;68.00;;;;;;5052583;28;848;-69
2023/05/04 10:44:23;;;;;;;;;;;19.70;68.10;;;;;;5066141;28;1283;-69
2023/05/04 10:47:02;;;;;;;;;;;19.60;68.10;;;;;;5084400;28;905;-69
2023/05/04 10:49:28;;;;;;;;;;;19.60;68.20;;;;;;5045069;28;1959;-69
2023/05/04 10:52:26;;;;;;;;;;;19.60;68.20;;;;;;5052762;28;831;-69
2023/05/04 10:54:58;;;;;;;;;;;19.60;68.30;;;;;;5052009;28;1348;-69
2023/05/04 10:57:24;;;;;;;;;;;19.60;68.40;;;;;;5052545;28;835;-69
2023/05/04 10:59:53;;;;;;;;;;;19.60;68.40;;;;;;5048193;28;930;-68
2023/05/04 11:02:22;;;;;;;;;;;19.60;68.40;;;;;;5035063;28;1154;-69
2023/05/04 11:04:57;;;;;;;;;;;19.60;68.40;;;;;;5050862;28;1290;-69
2023/05/04 11:07:31;;;;;;;;;;;19.60;68.40;;;;;;5050146;28;1910;-68
2023/05/04 11:09:56;;;;;;;;;;;19.60;68.40;;;;;;5050769;28;818;-69
2023/05/04 11:12:22;;;;;;;;;;;19.60;68.40;;;;;;5046128;28;842;-68
2023/05/04 11:14:47;;;;;;;;;;;19.60;68.50;;;;;;5084584;28;1259;-69
2023/05/04 11:17:14;;;;;;;;;;;19.60;68.40;;;;;;5051440;28;913;-69
2023/05/04 11:19:50;;;;;;;;;;;19.60;68.50;;;;;;5084007;28;902;-68
2023/05/04 11:22:19;;;;;;;;;;;19.60;68.40;;;;;;5034552;28;938;-69
2023/05/04 11:24:44;;;;;;;;;;;19.60;68.30;;;;;;5051820;28;1361;-68
2023/05/04 11:27:39;;;;;;;;;;;19.60;68.30;;;;;;5051688;28;1094;-68
2023/05/04 11:30:05;;;;;;;;;;;19.60;68.30;;;;;;5051082;28;1305;-69
2023/05/04 11:32:46;;;;;;;;;;;19.60;68.20;;;;;;5084431;28;935;-68
2023/05/04 11:35:16;;;;;;;;;;;19.60;68.20;;;;;;5050835;28;1489;-68
2023/05/04 11:37:41;;;;;;;;;;;19.60;68.30;;;;;;5083931;28;891;-68
2023/05/04 11:40:08;;;;;;;;;;;19.60;68.10;;;;;;5052581;28;899;-69
2023/05/04 11:42:33;;;;;;;;;;;19.50;68.20;;;;;;5052508;28;948;-69
2023/05/04 11:44:59;;;;;;;;;;;19.50;68.20;;;;;;5052076;28;1263;-69
2023/05/04 11:47:25;;;;;;;;;;;19.50;68.20;;;;;;5083888;28;1909;-69
2023/05/04 11:49:50;;;;;;;;;;;19.50;68.20;;;;;;5083865;28;819;-69
2023/05/04 11:52:21;;;;;;;;;;;19.50;68.20;;;;;;5051665;28;896;-69
2023/05/04 11:54:54;;;;;;;;;;;19.50;68.20;;;;;;5051076;28;1365;-68
2023/05/04 11:57:22;;;;;;;;;;;19.50;68.20;;;;;;5051486;28;847;-68
2023/05/04 11:59:48;;;;;;;;;;;19.50;68.20;;;;;;5083715;28;1335;-68
2023/05/04 12:02:14;;;;;;;;;;;19.50;68.30;;;;;;5051777;28;935;-69
2023/05/04 12:04:39;;;;;;;;;;;19.50;68.60;;;;;;5050835;28;1356;-69
2023/05/04 12:07:06;;;;;;;;;;;19.50;67.90;;;;;;5050348;28;1348;-70
2023/05/04 12:09:31;;;;;;;;;;;19.40;65.50;;;;;;5050730;28;1910;-69
2023/05/04 12:11:56;;;;;;;;;;;19.40;65.30;;;;;;5051308;28;923;-69
2023/05/04 12:14:23;;;;;;;;;;;19.40;65.20;;;;;;5051189;28;1251;-69
2023/05/04 12:16:56;;;;;;;;;;;19.30;65.10;;;;;;5051123;28;1298;-69
2023/05/04 12:19:21;;;;;;;;;;;19.30;65.00;;;;;;5049381;28;1380;-69
2023/05/04 12:21:51;;;;;;;;;;;19.20;64.80;;;;;;5050982;28;1416;-69
2023/05/04 12:24:16;;;;;;;;;;;19.20;64.70;;;;;;5049242;28;1324;-69
2023/05/04 12:26:42;;;;;;;;;;;19.20;64.60;;;;;;5050871;28;848;-70
2023/05/04 12:29:07;;;;;;;;;;;19.20;64.40;;;;;;5050016;28;1909;-70
2023/05/04 12:31:32;;;;;;;;;;;19.20;64.30;;;;;;5082326;28;1444;-70
2023/05/04 12:33:58;;;;;;;;;;;19.20;64.30;;;;;;5048041;28;1459;-70
2023/05/04 12:36:23;;;;;;;;;;;19.10;64.10;;;;;;5049907;28;1399;-69
2023/05/04 12:38:49;;;;;;;;;;;19.10;64.00;;;;;;5050430;28;1177;-69
2023/05/04 12:41:14;;;;;;;;;;;19.10;64.00;;;;;;5049948;28;865;-69
2023/05/04 12:43:40;;;;;;;;;;;19.10;64.50;;;;;;5049921;28;969;-69
2023/05/04 12:46:06;;;;;;;;;;;19.10;63.70;;;;;;5050558;28;1362;-70
2023/05/04 12:48:31;;;;;;;;;;;19.00;63.50;;;;;;5050564;28;1902;-70
2023/05/04 12:50:57;;;;;;;;;;;19.00;63.40;;;;;;5049717;28;796;-70
2023/05/04 12:53:26;;;;;;;;;;;19.00;63.30;;;;;;5050411;28;811;-70
2023/05/04 12:55:52;;;;;;;;;;;19.00;63.20;;;;;;5050273;28;1433;-70
2023/05/04 12:58:17;;;;;;;;;;;19.00;62.90;;;;;;5050825;28;797;-70
2023/05/04 13:00:43;;;;;;;;;;;19.00;62.90;;;;;;5050610;28;986;-70
2023/05/04 13:03:11;;;;;;;;;;;19.00;62.90;;;;;;5050214;28;1061;-70
2023/05/04 13:05:36;;;;;;;;;;;19.00;62.70;;;;;;5049670;28;1270;-70
2023/05/04 13:08:02;;;;;;;;;;;19.00;62.70;;;;;;5050087;28;1973;-70
2023/05/04 13:10:29;;;;;;;;;;;19.00;62.80;;;;;;5050475;28;1409;-70
2023/05/04 13:12:54;;;;;;;;;;;19.00;62.80;;;;;;5082602;28;825;-70
2023/05/04 13:15:20;;;;;;;;;;;19.00;62.60;;;;;;5049162;28;1292;-70
2023/05/04 13:17:45;;;;;;;;;;;19.00;62.70;;;;;;5050173;28;887;-70
2023/05/04 13:20:11;;;;;;;;;;;19.00;62.50;;;;;;5083259;28;826;-70
2023/05/04 13:22:37;;;;;;;;;;;19.00;61.00;;;;;;5050299;28;836;-69
2023/05/04 13:25:02;;;;;;;;;;;19.00;61.80;;;;;;5051245;28;1271;-70
2023/05/04 13:27:28;;;;;;;;;;;18.90;62.00;;;;;;5050847;28;1898;-71
2023/05/04 13:29:53;;;;;;;;;;;18.90;62.00;;;;;;5050895;28;835;-70
2023/05/04 13:32:19;;;;;;;;;;;19.00;61.70;;;;;;5051393;28;1009;-69
2023/05/04 13:34:44;;;;;;;;;;;18.90;61.70;;;;;;5050976;28;1405;-70
2023/05/04 13:37:15;;;;;;;;;;;19.00;61.70;;;;;;5050431;28;970;-70
2023/05/04 13:39:40;;;;;;;;;;;18.90;61.40;;;;;;5050239;28;835;-70
2023/05/04 13:42:06;;;;;;;;;;;18.90;61.50;;;;;;5051351;28;934;-70
2023/05/04 13:44:32;;;;;;;;;;;18.90;61.40;;;;;;5050933;28;1366;-71
2023/05/04 13:46:58;;;;;;;;;;;18.90;61.40;;;;;;5050305;28;824;-70
2023/05/04 13:49:23;;;;;;;;;;;18.90;61.30;;;;;;5049788;28;1909;-70
2023/05/04 13:51:49;;;;;;;;;;;18.90;59.20;;;;;;5049800;28;1174;-70
2023/05/04 13:54:14;;;;;;;;;;;18.90;59.80;;;;;;5049627;28;1380;-69
2023/05/04 13:56:40;;;;;;;;;;;18.90;60.80;;;;;;5050072;28;780;-70
2023/05/04 13:59:05;;;;;;;;;;;18.90;60.70;;;;;;5049849;28;974;-70
2023/05/04 14:01:30;;;;;;;;;;;18.90;60.50;;;;;;5051728;28;828;-70
2023/05/04 14:03:56;;;;;;;;;;;18.90;60.60;;;;;;5085516;28;1252;-70
2023/05/04 14:06:22;;;;;;;;;;;18.80;60.00;;;;;;5051043;28;887;-70
2023/05/04 14:08:47;;;;;;;;;;;18.90;59.90;;;;;;5053523;28;1898;-69
2023/05/04 14:11:12;;;;;;;;;;;18.90;59.90;;;;;;5053655;28;879;-69
2023/05/04 14:13:38;;;;;;;;;;;18.80;59.70;;;;;;5052186;28;2105;-70
2023/05/04 14:16:03;;;;;;;;;;;18.90;59.60;;;;;;5052694;28;1412;-71
2023/05/04 14:18:31;;;;;;;;;;;18.80;59.60;;;;;;5052322;28;1351;-70
2023/05/04 14:20:56;;;;;;;;;;;18.80;59.80;;;;;;5052333;28;1196;-70
2023/05/04 14:23:22;;;;;;;;;;;18.80;59.90;;;;;;5054083;28;883;-71
2023/05/04 14:25:51;;;;;;;;;;;18.80;60.10;;;;;;5053449;28;1337;-71
2023/05/04 14:28:16;;;;;;;;;;;18.80;60.10;;;;;;5053888;28;1901;-71
2023/05/04 14:30:42;;;;;;;;;;;18.80;60.10;;;;;;5053353;28;782;-71